Tumble, United Kingdom
Current Conditions -  °F | °C
As of 1:50 AM on Thursday 27 Nov 2014 (Local Time) from EGOP Reporting Station
Broken Clouds Broken Clouds  
Wind Chill: -2°   Ceiling: 100
Heat Index:   Visibility: 0.12mi
Dew Point:   Wind: 8mph
Humidity: 100%   Direction: 60°ENE
Pressure: 29.71"   Gusts: NA
Location:  51.78°N, 4.11°W
Report Text: EGOP 270150Z AUTO 06007KT 0200 // BKN001/// BKN048/// 02/02 Q1006
Loading
Personal Weather Stations






























Interactive Weather Map New forecast layout! Learn more

10-Day Weather Forecast

Advertisements
Track Severe Weather on mobile